Time;durP1;ratioP1;P1;durP2;ratioP2;P2;SDS_P1;SDS_P2;PMS_P1;PMS_P2;Temp;Humidity;BMP_temperature;BMP_pressure;BME280_temperature;BME280_humidity;BME280_pressure;Samples;Min_cycle;Max_cycle;Signal;HPM_P1;HPM_P2
2020/12/15 00:00:41;;;;;;;;;;;;;;;-1.59;100.00;101214.95;1878031;75;20384;-36
2020/12/15 00:03:09;;;;;;;;;;;;;;;-1.59;100.00;101212.79;1869740;75;20434;-37
2020/12/15 00:05:37;;;;;;;;;;;;;;;-1.61;100.00;101207.17;1873724;75;20158;-35
2020/12/15 00:08:04;;;;;;;;;;;;;;;-1.58;100.00;101220.98;1867241;76;20166;-39
2020/12/15 00:10:33;;;;;;;;;;;;;;;-1.58;100.00;101222.27;1866912;77;20186;-36
2020/12/15 00:13:01;;;;;;;;;;;;;;;-1.58;100.00;101214.14;1867282;76;20214;-36
2020/12/15 00:15:29;;;;;;;;;;;;;;;-1.57;100.00;101214.58;1867175;76;20170;-37
2020/12/15 00:17:57;;;;;;;;;;;;;;;-1.56;100.00;101212.89;1867313;76;20131;-36
2020/12/15 00:20:25;;;;;;;;;;;;;;;-1.55;100.00;101215.94;1867354;75;20427;-38
2020/12/15 00:22:52;;;;;;;;;;;;;;;-1.54;100.00;101206.13;1867461;75;20169;-36
2020/12/15 00:25:20;;;;;;;;;;;;;;;-1.55;100.00;101193.68;1867370;77;20138;-48
2020/12/15 00:27:48;;;;;;;;;;;;;;;-1.55;100.00;101194.97;1867593;77;20154;-38
2020/12/15 00:30:16;;;;;;;;;;;;;;;-1.54;100.00;101194.56;1867420;77;20217;-36
2020/12/15 00:32:48;;;;;;;;;;;;;;;-1.53;100.00;101192.47;1867169;77;20194;-36
2020/12/15 00:35:15;;;;;;;;;;;;;;;-1.53;100.00;101188.20;1867206;77;20131;-38
2020/12/15 00:37:43;;;;;;;;;;;;;;;-1.53;100.00;101198.89;1867578;77;20686;-37
2020/12/15 00:40:11;;;;;;;;;;;;;;;-1.53;100.00;101205.32;1867441;77;20392;-37
2020/12/15 00:42:39;;;;;;;;;;;;;;;-1.53;100.00;101200.18;1867416;77;20154;-37
2020/12/15 00:45:08;;;;;;;;;;;;;;;-1.52;100.00;101204.10;1867320;77;20381;-36
2020/12/15 00:47:35;;;;;;;;;;;;;;;-1.52;100.00;101195.52;1867181;77;20157;-35
2020/12/15 00:50:06;;;;;;;;;;;;;;;-1.51;100.00;101200.69;1867459;77;20237;-37
2020/12/15 00:52:34;;;;;;;;;;;;;;;-1.51;100.00;101208.40;1867336;77;20181;-38
2020/12/15 00:55:01;;;;;;;;;;;;;;;-1.49;100.00;101210.63;1867158;77;20417;-37
2020/12/15 00:57:29;;;;;;;;;;;;;;;-1.49;100.00;101206.78;1867529;77;20194;-36
2020/12/15 00:59:58;;;;;;;;;;;;;;;-1.48;100.00;101202.11;1867202;77;20161;-38
2020/12/15 01:02:27;;;;;;;;;;;;;;;-1.47;100.00;101204.27;1867159;77;20416;-37
2020/12/15 01:04:56;;;;;;;;;;;;;;;-1.47;100.00;101224.44;1867332;77;20403;-37
2020/12/15 01:07:24;;;;;;;;;;;;;;;-1.46;100.00;101231.34;1867330;77;20189;-36
2020/12/15 01:09:52;;;;;;;;;;;;;;;-1.43;100.00;101229.28;1867200;77;20122;-37
2020/12/15 01:12:20;;;;;;;;;;;;;;;-1.41;100.00;101224.69;1867304;77;20213;-38
2020/12/15 01:14:47;;;;;;;;;;;;;;;-1.40;100.00;101218.73;1867374;77;20459;-37
2020/12/15 01:17:16;;;;;;;;;;;;;;;-1.39;100.00;101212.77;1867130;77;20194;-37
2020/12/15 01:19:46;;;;;;;;;;;;;;;-1.37;100.00;101219.23;1867615;77;20142;-37
2020/12/15 01:22:14;;;;;;;;;;;;;;;-1.36;100.00;101218.02;1867327;77;20452;-35
2020/12/15 01:24:42;;;;;;;;;;;;;;;-1.34;100.00;101206.11;1867163;77;20162;-36
2020/12/15 01:27:23;;;;;;;;;;;;;;;-1.33;100.00;101202.72;1866119;77;20205;-37
2020/12/15 01:29:56;;;;;;;;;;;;;;;-1.35;100.00;101204.75;1832697;77;20138;-38
2020/12/15 01:32:25;;;;;;;;;;;;;;;-1.35;100.00;101222.34;1862538;77;20169;-37
2020/12/15 01:34:53;;;;;;;;;;;;;;;-1.32;100.00;101225.06;1867362;77;20197;-37
2020/12/15 01:37:21;;;;;;;;;;;;;;;-1.34;100.00;101224.11;1867108;77;20229;-36
2020/12/15 01:39:49;;;;;;;;;;;;;;;-1.32;100.00;101220.32;1867120;77;20273;-36
2020/12/15 01:42:18;;;;;;;;;;;;;;;-1.32;100.00;101221.61;1865548;77;20170;-36
2020/12/15 01:44:47;;;;;;;;;;;;;;;-1.36;100.00;101214.56;1866482;77;20134;-36
2020/12/15 01:47:15;;;;;;;;;;;;;;;-1.35;100.00;101221.47;1867408;77;20136;-36
2020/12/15 01:49:43;;;;;;;;;;;;;;;-1.39;100.00;101219.20;1867500;77;20174;-37
2020/12/15 01:52:13;;;;;;;;;;;;;;;-1.39;100.00;101217.03;1833981;77;20244;-37
2020/12/15 01:54:45;;;;;;;;;;;;;;;-1.39;100.00;101196.46;1866362;77;20258;-37
2020/12/15 01:57:15;;;;;;;;;;;;;;;-1.42;100.00;101199.78;1866770;77;20150;-37
2020/12/15 01:59:45;;;;;;;;;;;;;;;-1.42;100.00;101197.61;1865313;77;20153;-37
2020/12/15 02:02:14;;;;;;;;;;;;;;;-1.43;100.00;101203.56;1847381;77;20134;-37
2020/12/15 02:04:45;;;;;;;;;;;;;;;-1.43;100.00;101204.85;1866628;77;20142;-36
2020/12/15 02:07:13;;;;;;;;;;;;;;;-1.43;100.00;101205.73;1867309;77;20178;-36
2020/12/15 02:09:41;;;;;;;;;;;;;;;-1.43;100.00;101217.70;1867252;77;20237;-37
2020/12/15 02:12:12;;;;;;;;;;;;;;;-1.42;100.00;101213.04;1864610;77;20127;-38
2020/12/15 02:14:44;;;;;;;;;;;;;;;-1.44;100.00;101202.69;1867306;77;20134;-36
2020/12/15 02:17:13;;;;;;;;;;;;;;;-1.44;100.00;101210.41;1866955;77;20178;-38
2020/12/15 02:20:06;;;;;;;;;;;;;;;-1.44;100.00;101216.83;1821928;77;20143;-38
2020/12/15 02:22:35;;;;;;;;;;;;;;;-1.44;100.00;101197.55;1834058;77;20158;-35
2020/12/15 02:26:52;;;;;;;;;;;;;;;-1.43;100.00;101172.30;1918045;74;20142;-36
2020/12/15 02:29:23;;;;;;;;;;;;;;;-1.49;100.00;101184.92;1893306;75;21105;-38
2020/12/15 02:31:51;;;;;;;;;;;;;;;-1.49;100.00;101178.90;1902390;75;20151;-37
2020/12/15 02:34:19;;;;;;;;;;;;;;;-1.51;100.00;101166.42;1903192;75;20421;-35
2020/12/15 02:36:47;;;;;;;;;;;;;;;-1.50;100.00;101161.72;1903279;75;20120;-37
2020/12/15 02:39:18;;;;;;;;;;;;;;;-1.52;100.00;101162.09;1902469;75;20170;-37
2020/12/15 02:41:53;;;;;;;;;;;;;;;-1.53;100.00;101140.64;1894102;75;20401;-36
2020/12/15 02:44:22;;;;;;;;;;;;;;;-1.55;100.00;101152.55;1903155;75;20243;-36
2020/12/15 02:46:52;;;;;;;;;;;;;;;-1.55;100.00;101157.69;1901634;75;20223;-38
2020/12/15 02:49:20;;;;;;;;;;;;;;;-1.56;100.00;101153.36;1868931;75;20137;-37
2020/12/15 02:51:48;;;;;;;;;;;;;;;-1.56;100.00;101150.79;1903011;75;20287;-37
2020/12/15 02:54:21;;;;;;;;;;;;;;;-1.55;100.00;101163.23;1892141;75;20231;-36
2020/12/15 02:56:49;;;;;;;;;;;;;;;-1.54;100.00;101177.85;1903086;75;20489;-37
2020/12/15 02:59:16;;;;;;;;;;;;;;;-1.53;100.00;101171.49;1903068;75;20274;-38
2020/12/15 03:01:46;;;;;;;;;;;;;;;-1.52;100.00;101173.25;1902985;75;20176;-37
2020/12/15 03:04:14;;;;;;;;;;;;;;;-1.50;100.00;101192.56;1903261;75;20179;-37
2020/12/15 03:06:43;;;;;;;;;;;;;;;-1.50;100.00;101192.16;1902856;75;20505;-34
2020/12/15 03:09:13;;;;;;;;;;;;;;;-1.49;100.00;101188.78;1902499;75;20438;-36
2020/12/15 03:11:43;;;;;;;;;;;;;;;-1.51;100.00;101167.27;1895097;75;20192;-38
2020/12/15 03:14:12;;;;;;;;;;;;;;;-1.52;100.00;101169.80;1866177;77;20130;-37
2020/12/15 03:16:40;;;;;;;;;;;;;;;-1.53;100.00;101168.05;1867829;77;20395;-41
2020/12/15 03:19:09;;;;;;;;;;;;;;;-1.55;100.00;101164.12;1868086;77;20456;-37
2020/12/15 03:21:37;;;;;;;;;;;;;;;-1.54;100.00;101164.59;1867915;77;20150;-35
2020/12/15 03:24:06;;;;;;;;;;;;;;;-1.55;100.00;101166.69;1867974;77;20122;-37
2020/12/15 03:26:35;;;;;;;;;;;;;;;-1.56;100.00;101163.64;1868269;75;20221;-38
2020/12/15 03:29:05;;;;;;;;;;;;;;;-1.55;100.00;101174.80;1871260;77;20178;-35
2020/12/15 03:31:33;;;;;;;;;;;;;;;-1.55;100.00;101168.38;1871321;77;20182;-37
2020/12/15 03:34:01;;;;;;;;;;;;;;;-1.56;100.00;101170.07;1871707;77;20134;-37
2020/12/15 03:36:31;;;;;;;;;;;;;;;-1.55;100.00;101188.95;1871146;77;20209;-37
2020/12/15 03:39:00;;;;;;;;;;;;;;;-1.55;100.00;101183.40;1870893;77;20130;-36
2020/12/15 03:41:30;;;;;;;;;;;;;;;-1.55;100.00;101192.40;1871171;77;20226;-37
2020/12/15 03:43:59;;;;;;;;;;;;;;;-1.56;100.00;101208.63;1834786;78;20192;-37
2020/12/15 03:46:32;;;;;;;;;;;;;;;-1.53;100.00;101219.46;1803014;80;20130;-36
2020/12/15 03:49:01;;;;;;;;;;;;;;;-1.55;100.00;101212.96;1802286;80;20456;-37
2020/12/15 03:51:31;;;;;;;;;;;;;;;-1.54;100.00;101212.56;1803012;80;20147;-37
2020/12/15 03:54:06;;;;;;;;;;;;;;;-1.55;100.00;101219.39;1797830;80;20143;-38
2020/12/15 03:56:38;;;;;;;;;;;;;;;-1.54;100.00;101226.70;1803204;80;20162;-37
2020/12/15 03:59:05;;;;;;;;;;;;;;;-1.55;100.00;101220.67;1803407;80;20377;-36
2020/12/15 04:01:33;;;;;;;;;;;;;;;-1.56;100.00;101225.75;1803171;80;20179;-37
2020/12/15 04:04:02;;;;;;;;;;;;;;;-1.56;100.00;101234.34;1816663;79;20153;-36
2020/12/15 04:06:32;;;;;;;;;;;;;;;-1.56;100.00;101234.34;1802685;80;20139;-37
2020/12/15 04:09:01;;;;;;;;;;;;;;;-1.55;100.00;101239.95;1826339;78;20129;-35
2020/12/15 04:11:30;;;;;;;;;;;;;;;-1.56;100.00;101238.60;1806626;78;20157;-38
2020/12/15 04:13:57;;;;;;;;;;;;;;;-1.57;100.00;101241.98;1803815;80;20519;-37
2020/12/15 04:16:26;;;;;;;;;;;;;;;-1.57;100.00;101241.58;1804261;80;20444;-40
2020/12/15 04:18:58;;;;;;;;;;;;;;;-1.58;100.00;101241.14;1801572;80;20186;-36
2020/12/15 04:21:28;;;;;;;;;;;;;;;-1.57;100.00;101243.27;1808480;78;20170;-38
2020/12/15 04:23:58;;;;;;;;;;;;;;;-1.58;100.00;101244.99;1803756;79;20530;-36
2020/12/15 04:26:28;;;;;;;;;;;;;;;-1.58;100.00;101254.39;1803760;79;20183;-35
2020/12/15 04:28:56;;;;;;;;;;;;;;;-1.59;100.00;101251.35;1804023;80;20155;-36
2020/12/15 04:31:30;;;;;;;;;;;;;;;-1.59;100.00;101259.06;1803598;79;20215;-36
2020/12/15 04:33:59;;;;;;;;;;;;;;;-1.56;100.00;101268.17;1803720;79;20158;-34
2020/12/15 04:36:29;;;;;;;;;;;;;;;-1.53;100.00;101261.88;1803745;79;20206;-35
2020/12/15 04:38:57;;;;;;;;;;;;;;;-1.53;100.00;101269.19;1803572;79;20270;-38
2020/12/15 04:41:32;;;;;;;;;;;;;;;-1.52;100.00;101263.64;1804197;78;20234;-37
2020/12/15 04:44:00;;;;;;;;;;;;;;;-1.52;100.00;101273.92;1803795;80;20254;-37
2020/12/15 04:46:31;;;;;;;;;;;;;;;-1.54;100.00;101273.86;1803919;80;20143;-38
2020/12/15 04:49:06;;;;;;;;;;;;;;;-1.51;100.00;101273.96;1803875;79;20165;-36
2020/12/15 04:51:45;;;;;;;;;;;;;;;-1.50;100.00;101265.84;1804006;79;20184;-38
2020/12/15 04:54:15;;;;;;;;;;;;;;;-1.49;100.00;101272.75;1811526;78;20663;-36
2020/12/15 04:56:59;;;;;;;;;;;;;;;-1.47;100.00;101264.70;1804057;79;20169;-37
2020/12/15 04:59:31;;;;;;;;;;;;;;;-1.45;100.00;101272.08;1803226;78;20297;-38
2020/12/15 05:02:03;;;;;;;;;;;;;;;-1.45;100.00;101270.79;1803107;79;20139;-37
2020/12/15 05:04:39;;;;;;;;;;;;;;;-1.42;100.00;101275.64;1811733;78;20206;-37
2020/12/15 05:07:08;;;;;;;;;;;;;;;-1.40;100.00;101276.99;1803934;80;20135;-37
2020/12/15 05:09:54;;;;;;;;;;;;;;;-1.40;100.00;101273.13;1803984;80;20174;-37
2020/12/15 05:12:23;;;;;;;;;;;;;;;-1.42;100.00;101278.20;1803592;80;20162;-34
2020/12/15 05:14:52;;;;;;;;;;;;;;;-1.43;100.00;101278.14;1803757;80;20384;-36
2020/12/15 05:17:23;;;;;;;;;;;;;;;-1.43;100.00;101284.16;1803326;78;20122;-38
2020/12/15 05:19:53;;;;;;;;;;;;;;;-1.42;100.00;101275.64;1811313;78;20143;-38
2020/12/15 05:22:23;;;;;;;;;;;;;;;-1.43;100.00;101266.56;1808972;78;20191;-38
2020/12/15 05:24:51;;;;;;;;;;;;;;;-1.45;100.00;101264.36;1812933;78;20163;-38
2020/12/15 05:27:30;;;;;;;;;;;;;;;-1.46;100.00;101270.31;1804568;78;20142;-37
2020/12/15 05:30:05;;;;;;;;;;;;;;;-1.46;100.00;101272.48;1805938;78;20166;-37
2020/12/15 05:32:37;;;;;;;;;;;;;;;-1.48;100.00;101282.22;1800931;78;20462;-36
2020/12/15 05:35:27;;;;;;;;;;;;;;;-1.49;100.00;101284.31;1805839;78;20157;-37
2020/12/15 05:38:01;;;;;;;;;;;;;;;-1.53;100.00;101289.75;1804719;78;20202;-36
2020/12/15 05:40:34;;;;;;;;;;;;;;;-1.53;100.00;101283.73;1814385;78;20175;-36
2020/12/15 05:43:13;;;;;;;;;;;;;;;-1.52;100.00;101279.95;1784791;78;20150;-37
2020/12/15 05:45:41;;;;;;;;;;;;;;;-1.50;100.00;101278.30;1772622;78;20487;-35
2020/12/15 05:48:10;;;;;;;;;;;;;;;-1.50;100.00;101272.27;1803882;78;20142;-38
2020/12/15 05:50:41;;;;;;;;;;;;;;;-1.50;100.00;101277.01;1809676;78;20325;-36
2020/12/15 05:53:09;;;;;;;;;;;;;;;-1.51;100.00;101284.69;1810121;78;20295;-36
2020/12/15 05:55:38;;;;;;;;;;;;;;;-1.54;100.00;101277.71;1807814;78;20468;-37
2020/12/15 05:58:06;;;;;;;;;;;;;;;-1.53;100.00;101285.02;1779988;78;20213;-39
2020/12/15 06:00:33;;;;;;;;;;;;;;;-1.55;100.00;101284.95;1807388;78;20496;-38
2020/12/15 06:03:08;;;;;;;;;;;;;;;-1.53;100.00;101287.59;1807225;78;20298;-38
2020/12/15 06:05:37;;;;;;;;;;;;;;;-1.53;100.00;101286.30;1810846;78;20173;-39
2020/12/15 06:08:06;;;;;;;;;;;;;;;-1.54;100.00;101291.85;1807375;78;20366;-39
2020/12/15 06:10:34;;;;;;;;;;;;;;;-1.54;100.00;101290.56;1792611;78;20188;-37
2020/12/15 06:13:04;;;;;;;;;;;;;;;-1.53;100.00;101290.16;1807000;78;20206;-39
2020/12/15 06:15:31;;;;;;;;;;;;;;;-1.53;100.00;101294.90;1808531;78;20192;-40
2020/12/15 06:18:00;;;;;;;;;;;;;;;-1.52;100.00;101300.92;1806145;78;20147;-40
2020/12/15 06:20:32;;;;;;;;;;;;;;;-1.51;100.00;101297.54;1809478;78;20180;-41
2020/12/15 06:23:00;;;;;;;;;;;;;;;-1.50;100.00;101304.41;1808125;78;20165;-37
2020/12/15 06:27:00;;;;;;;;;;;;;;;-1.47;100.00;101300.70;1891687;74;20231;-34
2020/12/15 06:29:32;;;;;;;;;;;;;;;-1.51;100.00;101310.39;1864772;75;20179;-41
2020/12/15 06:32:01;;;;;;;;;;;;;;;-1.52;100.00;101301.80;1855813;76;20147;-38
2020/12/15 06:34:31;;;;;;;;;;;;;;;-1.53;100.00;101308.16;1868248;75;20172;-45
2020/12/15 06:37:00;;;;;;;;;;;;;;;-1.53;100.00;101317.16;1867223;77;20187;-38
2020/12/15 06:39:28;;;;;;;;;;;;;;;-1.55;100.00;101315.80;1869538;75;20192;-40
2020/12/15 06:42:01;;;;;;;;;;;;;;;-1.57;100.00;101319.98;1876537;75;20191;-37
2020/12/15 06:44:30;;;;;;;;;;;;;;;-1.56;100.00;101319.59;1877113;75;20599;-38
2020/12/15 06:46:59;;;;;;;;;;;;;;;-1.55;100.00;101323.52;1902247;75;20176;-38
2020/12/15 06:49:29;;;;;;;;;;;;;;;-1.54;100.00;101330.82;1898285;75;20207;-40
2020/12/15 06:51:59;;;;;;;;;;;;;;;-1.53;100.00;101337.32;1868859;75;20209;-40
2020/12/15 06:54:27;;;;;;;;;;;;;;;-1.55;100.00;101342.80;1866294;75;20188;-39
2020/12/15 06:57:08;;;;;;;;;;;;;;;-1.57;100.00;101345.70;1866460;77;20197;-39
2020/12/15 06:59:40;;;;;;;;;;;;;;;-1.57;100.00;101345.70;1884662;75;20135;-39
2020/12/15 07:02:10;;;;;;;;;;;;;;;-1.59;100.00;101339.63;1873133;75;20154;-39
2020/12/15 07:04:42;;;;;;;;;;;;;;;-1.59;100.00;101344.78;1852490;76;20213;-39
2020/12/15 07:07:10;;;;;;;;;;;;;;;-1.58;100.00;101343.97;1872765;75;20181;-45
2020/12/15 07:09:38;;;;;;;;;;;;;;;-1.59;100.00;101351.20;1867788;75;20170;-36
2020/12/15 07:12:16;;;;;;;;;;;;;;;-1.61;100.00;101355.39;1867977;75;20194;-39
2020/12/15 07:14:45;;;;;;;;;;;;;;;-1.60;100.00;101362.30;1870627;75;20208;-39
2020/12/15 07:17:13;;;;;;;;;;;;;;;-1.59;100.00;101359.32;1872871;75;20214;-39
2020/12/15 07:19:40;;;;;;;;;;;;;;;-1.58;100.00;101361.08;1870141;75;20439;-38
2020/12/15 07:22:08;;;;;;;;;;;;;;;-1.56;100.00;101359.03;1867592;75;20200;-39
2020/12/15 07:24:36;;;;;;;;;;;;;;;-1.53;100.00;101358.29;1871640;75;20225;-39
2020/12/15 07:27:06;;;;;;;;;;;;;;;-1.51;100.00;101360.53;1873496;75;20420;-38
2020/12/15 07:29:37;;;;;;;;;;;;;;;-1.51;100.00;101366.52;1836538;77;20404;-35
2020/12/15 07:32:08;;;;;;;;;;;;;;;-1.49;100.00;101357.19;1856401;75;20150;-38
2020/12/15 07:34:37;;;;;;;;;;;;;;;-1.50;100.00;101353.26;1866886;76;20172;-39
2020/12/15 07:37:05;;;;;;;;;;;;;;;-1.53;100.00;101355.72;1868595;75;20180;-37
2020/12/15 07:39:32;;;;;;;;;;;;;;;-1.52;100.00;101352.34;1868977;75;20178;-37
2020/12/15 07:42:01;;;;;;;;;;;;;;;-1.50;100.00;101341.69;1877008;75;20172;-37
2020/12/15 07:44:34;;;;;;;;;;;;;;;-1.48;100.00;101347.78;1873352;75;20263;-41
2020/12/15 07:47:03;;;;;;;;;;;;;;;-1.47;100.00;101349.14;1866703;75;20177;-40
2020/12/15 07:49:32;;;;;;;;;;;;;;;-1.45;100.00;101334.67;1840624;75;20198;-40
2020/12/15 07:52:00;;;;;;;;;;;;;;;-1.44;100.00;101338.97;1869444;75;20181;-36
2020/12/15 07:54:28;;;;;;;;;;;;;;;-1.48;100.00;101352.53;1873293;75;20221;-37
2020/12/15 07:57:00;;;;;;;;;;;;;;;-1.46;100.00;101348.34;1868735;75;20585;-39
2020/12/15 07:59:30;;;;;;;;;;;;;;;-1.44;100.00;101348.38;1852060;75;20547;-37
2020/12/15 08:01:59;;;;;;;;;;;;;;;-1.42;100.00;101350.61;1853379;75;20326;-40
2020/12/15 08:04:28;;;;;;;;;;;;;;;-1.39;100.00;101340.06;1824173;75;20213;-41
2020/12/15 08:06:57;;;;;;;;;;;;;;;-1.36;100.00;101337.60;1826145;75;20190;-40
2020/12/15 08:09:24;;;;;;;;;;;;;;;-1.38;100.00;101337.94;1851274;76;20455;-36
2020/12/15 08:11:52;;;;;;;;;;;;;;;-1.40;100.00;101334.45;1870053;75;20284;-38
2020/12/15 08:14:20;;;;;;;;;;;;;;;-1.38;100.00;101332.80;1871138;75;20298;-40
2020/12/15 08:16:50;;;;;;;;;;;;;;;-1.37;100.00;101346.53;1867558;75;20187;-38
2020/12/15 08:19:21;;;;;;;;;;;;;;;-1.40;100.00;101329.70;1870495;75;20174;-39
2020/12/15 08:21:50;;;;;;;;;;;;;;;-1.43;100.00;101330.45;1867762;75;20197;-39
2020/12/15 08:24:26;;;;;;;;;;;;;;;-1.41;100.00;101316.38;1866908;75;20190;-38
2020/12/15 08:26:51;;;;;;;;;;;;;;;-1.39;100.00;101317.33;1879896;75;20195;-36
2020/12/15 08:29:20;;;;;;;;;;;;;;;-1.40;100.00;101310.02;1869794;75;20138;-40
2020/12/15 08:31:48;;;;;;;;;;;;;;;-1.39;100.00;101312.19;1871934;75;20150;-38
2020/12/15 08:34:18;;;;;;;;;;;;;;;-1.37;100.00;101313.98;1874846;75;20292;-38
2020/12/15 08:36:48;;;;;;;;;;;;;;;-1.33;100.00;101312.02;1874673;75;20192;-40
2020/12/15 08:39:18;;;;;;;;;;;;;;;-1.32;100.00;101296.19;1871531;75;20184;-41
2020/12/15 08:41:54;;;;;;;;;;;;;;;-1.32;100.00;101294.50;1871779;75;20136;-40
2020/12/15 08:44:22;;;;;;;;;;;;;;;-1.31;100.00;101291.08;1865759;75;20220;-39
2020/12/15 08:46:51;;;;;;;;;;;;;;;-1.28;100.00;101290.34;1876311;75;20164;-38
2020/12/15 08:49:21;;;;;;;;;;;;;;;-1.28;100.00;101295.48;1867379;75;20412;-40
2020/12/15 08:51:50;;;;;;;;;;;;;;;-1.27;100.00;101303.27;1871614;75;20177;-40
2020/12/15 08:54:21;;;;;;;;;;;;;;;-1.27;100.00;101286.55;1874614;75;20208;-39
2020/12/15 08:56:49;;;;;;;;;;;;;;;-1.28;100.00;101282.62;1868758;75;20444;-39
2020/12/15 08:59:20;;;;;;;;;;;;;;;-1.28;100.00;101274.91;1870456;75;20175;-39
2020/12/15 09:01:52;;;;;;;;;;;;;;;-1.29;100.00;101272.74;1867591;75;20206;-39
2020/12/15 09:04:27;;;;;;;;;;;;;;;-1.28;100.00;101278.77;1867656;75;20593;-39
2020/12/15 09:06:56;;;;;;;;;;;;;;;-1.31;100.00;101279.51;1863341;75;20171;-45
2020/12/15 09:09:31;;;;;;;;;;;;;;;-1.31;100.00;101285.94;1874097;75;20447;-39
2020/12/15 09:11:56;;;;;;;;;;;;;;;-1.29;100.00;101288.58;1866129;75;20165;-39
2020/12/15 09:14:24;;;;;;;;;;;;;;;-1.28;100.00;101289.05;1869943;75;20156;-39
2020/12/15 09:16:52;;;;;;;;;;;;;;;-1.29;100.00;101290.75;1867499;75;20308;-38
2020/12/15 09:19:21;;;;;;;;;;;;;;;-1.29;100.00;101307.46;1870047;75;20153;-40
2020/12/15 09:22:03;;;;;;;;;;;;;;;-1.33;100.00;101295.72;1871104;75;20188;-40
2020/12/15 09:24:33;;;;;;;;;;;;;;;-1.33;100.00;101288.00;1872835;75;20460;-39
2020/12/15 09:27:02;;;;;;;;;;;;;;;-1.34;100.00;101290.98;1870390;75;20135;-38
2020/12/15 09:29:30;;;;;;;;;;;;;;;-1.34;100.00;101283.27;1866028;77;20382;-43
2020/12/15 09:32:02;;;;;;;;;;;;;;;-1.32;100.00;101282.92;1867526;75;20138;-38
2020/12/15 09:34:30;;;;;;;;;;;;;;;-1.32;100.00;101284.21;1867403;75;20445;-40
2020/12/15 09:36:59;;;;;;;;;;;;;;;-1.31;100.00;101273.48;1866994;75;20263;-44
2020/12/15 09:39:28;;;;;;;;;;;;;;;-1.29;100.00;101279.17;1867036;75;20184;-40
2020/12/15 09:42:00;;;;;;;;;;;;;;;-1.28;100.00;101282.62;1873329;75;20255;-39
2020/12/15 09:44:28;;;;;;;;;;;;;;;-1.26;100.00;101274.57;1874126;75;20146;-40
2020/12/15 09:46:55;;;;;;;;;;;;;;;-1.26;100.00;101275.86;1871800;75;20197;-39
2020/12/15 09:49:23;;;;;;;;;;;;;;;-1.21;100.00;101275.22;1865975;75;20218;-41
2020/12/15 09:51:51;;;;;;;;;;;;;;;-1.17;100.00;101261.17;1883027;75;20211;-40
2020/12/15 09:54:21;;;;;;;;;;;;;;;-1.18;100.00;101250.00;1864810;75;20315;-40
2020/12/15 09:56:49;;;;;;;;;;;;;;;-1.23;100.00;101240.83;1833360;75;20623;-38
2020/12/15 09:59:17;;;;;;;;;;;;;;;-1.25;100.00;101245.47;1867043;75;20206;-38
2020/12/15 10:01:45;;;;;;;;;;;;;;;-1.24;100.00;101249.77;1868155;75;20194;-39
2020/12/15 10:04:13;;;;;;;;;;;;;;;-1.22;100.00;101255.45;1873153;75;20205;-40
2020/12/15 10:06:43;;;;;;;;;;;;;;;-1.18;100.00;101259.01;1870760;75;20246;-40
2020/12/15 10:09:10;;;;;;;;;;;;;;;-1.19;100.00;101263.71;1867884;75;20177;-39
2020/12/15 10:11:38;;;;;;;;;;;;;;;-1.21;100.00;101264.05;1872602;75;20302;-38
2020/12/15 10:14:05;;;;;;;;;;;;;;;-1.19;100.00;101266.28;1875015;75;20388;-40
2020/12/15 10:16:34;;;;;;;;;;;;;;;-1.17;100.00;101263.34;1869610;75;20916;-37
2020/12/15 10:19:08;;;;;;;;;;;;;;;-1.14;100.00;101260.02;1847296;75;20181;-43
2020/12/15 10:21:43;;;;;;;;;;;;;;;-1.12;100.00;101254.13;1800004;75;20276;-44
2020/12/15 10:26:53;;;;;;;;;;;;;;;-1.12;100.00;101242.96;1896105;74;20273;-43
2020/12/15 10:29:20;;;;;;;;;;;;;;;-1.17;100.00;101259.89;1860602;75;20212;-44
2020/12/15 10:31:48;;;;;;;;;;;;;;;-1.21;100.00;101270.08;1869381;75;20201;-44
2020/12/15 10:34:16;;;;;;;;;;;;;;;-1.19;100.00;101269.27;1870793;75;20201;-43
2020/12/15 10:36:49;;;;;;;;;;;;;;;-1.15;100.00;101265.58;1866925;75;20190;-43
2020/12/15 10:39:18;;;;;;;;;;;;;;;-1.10;100.00;101274.34;1869153;75;20170;-44
2020/12/15 10:41:45;;;;;;;;;;;;;;;-1.05;100.00;101273.27;1872768;75;20143;-44
2020/12/15 10:44:14;;;;;;;;;;;;;;;-1.02;100.00;101275.53;1870643;75;20158;-42
2020/12/15 10:46:43;;;;;;;;;;;;;;;-1.03;100.00;101274.17;1836670;75;20167;-43
2020/12/15 10:49:12;;;;;;;;;;;;;;;-1.03;100.00;101267.74;1869341;75;20186;-43
2020/12/15 10:51:41;;;;;;;;;;;;;;;-1.00;100.00;101261.44;1868665;75;20130;-43
2020/12/15 10:54:09;;;;;;;;;;;;;;;-1.00;100.00;101250.74;1871041;75;20181;-42
2020/12/15 10:56:36;;;;;;;;;;;;;;;-0.99;100.00;101243.91;1870878;75;20225;-42
2020/12/15 10:59:04;;;;;;;;;;;;;;;-1.00;100.00;101247.29;1869485;75;20195;-45
2020/12/15 11:01:33;;;;;;;;;;;;;;;-1.01;100.00;101246.81;1868907;75;20596;-44
2020/12/15 11:04:03;;;;;;;;;;;;;;;-1.03;100.00;101253.19;1834960;75;20177;-44
2020/12/15 11:06:35;;;;;;;;;;;;;;;-1.02;100.00;101241.20;1865828;75;20199;-43
2020/12/15 11:09:00;;;;;;;;;;;;;;;-1.02;100.00;101248.91;1868196;75;20290;-47
2020/12/15 11:11:28;;;;;;;;;;;;;;;-1.03;100.00;101242.89;1879223;75;20429;-44
2020/12/15 11:13:55;;;;;;;;;;;;;;;-1.03;100.00;101248.45;1874477;75;20194;-43
2020/12/15 11:16:27;;;;;;;;;;;;;;;-1.03;100.00;101239.03;1869386;75;20186;-40
2020/12/15 11:18:54;;;;;;;;;;;;;;;-1.06;100.00;101249.22;1868852;75;20132;-40
2020/12/15 11:21:23;;;;;;;;;;;;;;;-1.06;100.00;101245.77;1872327;75;20259;-40
2020/12/15 11:23:50;;;;;;;;;;;;;;;-1.08;100.00;101248.27;1871710;75;20171;-40
2020/12/15 11:26:18;;;;;;;;;;;;;;;-1.06;100.00;101254.37;1870698;75;20167;-38
2020/12/15 11:28:47;;;;;;;;;;;;;;;-1.06;100.00;101240.63;1831192;77;20165;-38
2020/12/15 11:31:15;;;;;;;;;;;;;;;-1.06;100.00;101247.06;1802881;78;20198;-39
2020/12/15 11:33:42;;;;;;;;;;;;;;;-1.06;100.00;101245.36;1812981;78;20910;-38
2020/12/15 11:36:10;;;;;;;;;;;;;;;-1.05;100.00;101248.38;1802299;78;20465;-43
2020/12/15 11:38:43;;;;;;;;;;;;;;;-1.00;100.00;101247.29;1824172;77;20202;-43
2020/12/15 11:41:08;;;;;;;;;;;;;;;-1.00;100.00;101241.73;1812078;78;20323;-43
2020/12/15 11:43:37;;;;;;;;;;;;;;;-0.99;100.00;101251.63;1813332;77;20214;-39
2020/12/15 11:46:04;;;;;;;;;;;;;;;-1.02;100.00;101245.06;1812862;77;20275;-44
2020/12/15 11:48:34;;;;;;;;;;;;;;;-1.03;100.00;101251.02;1811366;77;20595;-43
2020/12/15 11:51:02;;;;;;;;;;;;;;;-1.04;100.00;101261.72;1796846;78;20232;-44
2020/12/15 11:53:31;;;;;;;;;;;;;;;-1.04;100.00;101263.41;1808237;78;20295;-44
2020/12/15 11:55:58;;;;;;;;;;;;;;;-1.05;100.00;101263.81;1809327;78;20198;-43
2020/12/15 11:58:28;;;;;;;;;;;;;;;-1.05;100.00;101255.25;1804290;78;20206;-43
2020/12/15 12:00:58;;;;;;;;;;;;;;;-1.04;100.00;101256.98;1815624;78;20179;-40
2020/12/15 12:03:26;;;;;;;;;;;;;;;-1.05;100.00;101258.67;1817040;78;20142;-40
2020/12/15 12:05:54;;;;;;;;;;;;;;;-1.03;100.00;101254.88;1819830;78;20474;-37
2020/12/15 12:08:25;;;;;;;;;;;;;;;-1.02;100.00;101251.49;1813818;78;20216;-42
2020/12/15 12:10:53;;;;;;;;;;;;;;;-1.02;100.00;101254.06;1789173;78;20495;-42
2020/12/15 12:13:21;;;;;;;;;;;;;;;-1.01;100.00;101245.53;1815706;78;20201;-40
2020/12/15 12:15:49;;;;;;;;;;;;;;;-0.98;100.00;101255.92;1810693;78;20550;-41
2020/12/15 12:18:16;;;;;;;;;;;;;;;-0.99;100.00;101262.80;1811160;78;20127;-43
2020/12/15 12:20:44;;;;;;;;;;;;;;;-0.95;100.00;101258.63;1818440;78;20195;-44
2020/12/15 12:23:13;;;;;;;;;;;;;;;-0.98;100.00;101256.80;1812751;78;20186;-43
2020/12/15 12:25:46;;;;;;;;;;;;;;;-0.98;100.00;101258.50;1816359;78;20205;-39
2020/12/15 12:28:13;;;;;;;;;;;;;;;-0.96;100.00;101259.44;1806030;78;20555;-39
2020/12/15 12:30:41;;;;;;;;;;;;;;;-0.94;100.00;101255.25;1813059;78;20452;-42
2020/12/15 12:33:08;;;;;;;;;;;;;;;-0.96;100.00;101249.15;1816523;78;20207;-43
2020/12/15 12:35:36;;;;;;;;;;;;;;;-0.94;100.00;101256.53;1814901;78;20145;-43
2020/12/15 12:38:03;;;;;;;;;;;;;;;-0.95;100.00;101260.80;1810812;78;20503;-43
2020/12/15 12:40:31;;;;;;;;;;;;;;;-0.96;100.00;101261.61;1812420;78;20275;-43
2020/12/15 12:43:02;;;;;;;;;;;;;;;-0.93;100.00;101259.58;1821701;78;20302;-43
2020/12/15 12:45:29;;;;;;;;;;;;;;;-0.92;100.00;101253.62;1815062;78;20187;-43